Time;durP1;ratioP1;P1;durP2;ratioP2;P2;SDS_P1;SDS_P2;PMS_P1;PMS_P2;Temp;Humidity;BMP_temperature;BMP_pressure;BME280_temperature;BME280_humidity;BME280_pressure;Samples;Min_cycle;Max_cycle;Signal;HPM_P1;HPM_P2
2021/12/27 00:00:19;;;;;;;24.10;22.40;;;8.50;95.60;;;;;;5035682;28;20720;-73
2021/12/27 00:02:47;;;;;;;25.05;23.35;;;8.50;95.50;;;;;;5035966;28;20256;-72
2021/12/27 00:05:14;;;;;;;24.10;22.50;;;8.40;95.70;;;;;;5035813;28;20197;-72
2021/12/27 00:07:41;;;;;;;24.30;22.80;;;8.40;95.90;;;;;;5035792;28;20304;-72
2021/12/27 00:10:10;;;;;;;1999.90;451.30;;;8.40;96.70;;;;;;5035496;28;20304;-72
2021/12/27 00:12:37;;;;;;;25.90;24.00;;;8.40;98.50;;;;;;5035778;28;20300;-72
2021/12/27 00:15:05;;;;;;;24.38;22.67;;;8.50;98.10;;;;;;5035721;28;20729;-73
2021/12/27 00:17:32;;;;;;;25.00;23.00;;;8.50;97.90;;;;;;5035578;28;20198;-73
2021/12/27 00:19:59;;;;;;;23.95;22.23;;;8.50;98.10;;;;;;5035295;28;20221;-72
2021/12/27 00:22:25;;;;;;;23.20;21.70;;;8.50;97.60;;;;;;5035663;28;20208;-72
2021/12/27 00:24:53;;;;;;;24.53;22.73;;;8.50;97.60;;;;;;5035564;28;20466;-73
2021/12/27 00:27:21;;;;;;;25.05;23.35;;;8.60;97.00;;;;;;5035411;28;20479;-72
2021/12/27 00:29:48;;;;;;;24.00;22.40;;;8.70;96.50;;;;;;5035153;28;20225;-72
2021/12/27 00:32:15;;;;;;;25.40;23.60;;;8.60;96.00;;;;;;5035390;28;20460;-72
2021/12/27 00:34:42;;;;;;;22.98;21.50;;;8.60;96.10;;;;;;5035492;28;20209;-72
2021/12/27 00:37:10;;;;;;;24.05;22.45;;;8.50;96.10;;;;;;5035287;28;20288;-72
2021/12/27 00:39:38;;;;;;;23.45;21.85;;;8.50;96.10;;;;;;5034956;28;20227;-72
2021/12/27 00:42:06;;;;;;;24.13;22.27;;;8.50;96.00;;;;;;5035265;28;20197;-72
2021/12/27 00:44:35;;;;;;;23.35;21.65;;;8.50;96.00;;;;;;5034887;28;20206;-72
2021/12/27 00:47:02;;;;;;;24.27;22.40;;;8.40;96.40;;;;;;5035078;28;20221;-72
2021/12/27 00:49:29;;;;;;;24.75;23.13;;;8.40;96.10;;;;;;5034763;28;20224;-72
2021/12/27 00:51:56;;;;;;;24.08;22.48;;;8.50;96.10;;;;;;5035268;28;20193;-72
2021/12/27 00:54:23;;;;;;;24.48;22.88;;;8.50;95.60;;;;;;5035052;28;20216;-72
2021/12/27 00:56:51;;;;;;;23.55;21.90;;;8.50;95.60;;;;;;5035061;28;20197;-72
2021/12/27 00:59:18;;;;;;;25.95;22.98;;;8.50;95.70;;;;;;5034731;28;20279;-72
2021/12/27 01:01:46;;;;;;;22.73;21.17;;;8.40;96.40;;;;;;5034672;28;20204;-73
2021/12/27 01:04:13;;;;;;;22.70;21.20;;;8.40;97.10;;;;;;5034189;28;20678;-72
2021/12/27 01:06:40;;;;;;;23.92;22.33;;;8.50;96.90;;;;;;5034833;28;20618;-73
2021/12/27 01:09:07;;;;;;;23.92;22.25;;;8.50;96.60;;;;;;5034661;28;20725;-72
2021/12/27 01:11:46;;;;;;;23.00;21.50;;;8.50;96.60;;;;;;5034823;28;20810;-72
2021/12/27 01:14:15;;;;;;;23.35;21.77;;;8.50;96.90;;;;;;5034704;28;20244;-72
2021/12/27 01:16:45;;;;;;;1999.90;492.95;;;8.50;96.80;;;;;;5034625;28;20200;-73
2021/12/27 01:19:13;;;;;;;24.52;22.63;;;8.50;98.10;;;;;;5034301;28;20224;-72
2021/12/27 01:21:40;;;;;;;24.23;22.42;;;8.60;98.30;;;;;;5034703;28;20659;-72
2021/12/27 01:24:07;;;;;;;24.88;23.08;;;8.50;98.40;;;;;;5034522;28;20251;-73
2021/12/27 01:26:34;;;;;;;24.08;22.35;;;8.50;97.90;;;;;;5034376;28;20197;-73
2021/12/27 01:29:01;;;;;;;23.27;21.58;;;8.50;97.20;;;;;;5034322;28;20720;-72
2021/12/27 01:31:29;;;;;;;22.70;21.00;;;8.50;96.80;;;;;;5034291;28;20201;-72
2021/12/27 01:33:56;;;;;;;23.45;21.65;;;8.50;96.60;;;;;;5034278;28;20202;-72
2021/12/27 01:36:27;;;;;;;24.13;22.40;;;8.40;96.80;;;;;;5034213;28;20296;-72
2021/12/27 01:38:54;;;;;;;23.83;22.23;;;8.40;97.60;;;;;;5034055;28;20217;-72
2021/12/27 01:41:21;;;;;;;24.02;22.23;;;8.40;97.90;;;;;;5033979;28;20470;-72
2021/12/27 01:43:48;;;;;;;22.38;20.83;;;8.40;99.30;;;;;;5033983;28;20197;-72
2021/12/27 01:46:17;;;;;;;23.65;21.95;;;8.40;98.00;;;;;;5034132;28;20229;-73
2021/12/27 01:48:53;;;;;;;38.08;34.83;;;8.30;97.60;;;;;;5033850;28;20256;-72
2021/12/27 01:51:21;;;;;;;24.92;22.92;;;8.30;97.70;;;;;;5033855;28;20279;-72
2021/12/27 01:53:49;;;;;;;24.58;22.52;;;8.30;97.10;;;;;;5033892;28;20201;-72
2021/12/27 01:56:20;;;;;;;24.17;22.38;;;8.20;97.10;;;;;;5033850;28;20555;-72
2021/12/27 01:58:47;;;;;;;211.43;40.28;;;8.20;97.20;;;;;;5033751;28;20217;-72
2021/12/27 02:01:15;;;;;;;24.42;22.52;;;8.20;97.30;;;;;;5033766;28;20198;-72
2021/12/27 02:03:43;;;;;;;23.65;22.05;;;8.20;96.60;;;;;;5033687;28;20204;-72
2021/12/27 02:06:12;;;;;;;24.77;23.00;;;8.10;96.70;;;;;;5033710;28;20201;-72
2021/12/27 02:08:41;;;;;;;23.88;22.08;;;8.00;96.80;;;;;;5033486;28;20586;-72
2021/12/27 02:11:15;;;;;;;23.25;21.58;;;7.90;96.80;;;;;;5033530;28;20197;-72
2021/12/27 02:13:45;;;;;;;23.98;22.27;;;7.90;97.00;;;;;;5033302;28;20198;-72
2021/12/27 02:16:13;;;;;;;25.25;23.25;;;7.90;96.50;;;;;;5033445;28;20710;-72
2021/12/27 02:18:40;;;;;;;25.38;23.48;;;7.90;96.60;;;;;;5033300;28;20224;-72
2021/12/27 02:21:09;;;;;;;24.60;22.65;;;7.90;96.10;;;;;;5041297;22;20236;-72
2021/12/27 02:23:37;;;;;;;135.27;31.35;;;8.00;95.80;;;;;;5033343;28;20201;-72
2021/12/27 02:26:04;;;;;;;24.77;22.77;;;7.90;95.80;;;;;;5033284;28;20205;-72
2021/12/27 02:28:32;;;;;;;24.75;22.85;;;7.80;97.10;;;;;;5033096;28;20582;-72
2021/12/27 02:30:59;;;;;;;24.08;22.30;;;7.80;97.10;;;;;;5033222;28;20202;-72
2021/12/27 02:33:26;;;;;;;25.02;23.13;;;7.90;96.40;;;;;;5033195;28;20201;-72
2021/12/27 02:35:55;;;;;;;24.05;22.08;;;7.90;95.70;;;;;;5033216;28;20296;-72
2021/12/27 02:38:25;;;;;;;183.40;38.15;;;7.80;95.60;;;;;;5033024;28;20212;-72
2021/12/27 02:40:53;;;;;;;41.53;25.92;;;7.70;96.50;;;;;;5033015;28;20205;-72
2021/12/27 02:43:22;;;;;;;24.38;22.60;;;7.60;97.50;;;;;;5032992;28;20674;-72
2021/12/27 02:45:52;;;;;;;24.35;22.35;;;7.60;97.60;;;;;;5032750;28;20654;-72
2021/12/27 02:48:22;;;;;;;24.90;23.10;;;7.70;97.00;;;;;;5032806;28;20570;-72
2021/12/27 02:50:50;;;;;;;24.48;22.83;;;7.80;96.30;;;;;;5032896;28;20204;-72
2021/12/27 02:53:18;;;;;;;24.60;22.90;;;7.80;96.10;;;;;;5032923;28;20208;-72
2021/12/27 02:55:48;;;;;;;26.40;24.13;;;7.80;95.80;;;;;;5032966;28;20208;-72
2021/12/27 02:58:15;;;;;;;25.38;23.45;;;7.80;95.90;;;;;;5032588;28;20661;-72
2021/12/27 03:00:52;;;;;;;24.60;22.73;;;7.80;95.80;;;;;;5032730;28;20201;-72
2021/12/27 03:03:20;;;;;;;25.20;23.17;;;7.80;96.00;;;;;;5032890;28;20283;-72
2021/12/27 03:05:47;;;;;;;24.52;22.73;;;7.60;96.60;;;;;;5032775;28;20562;-72
2021/12/27 03:08:15;;;;;;;24.17;22.50;;;7.70;96.80;;;;;;5032461;28;20235;-72
2021/12/27 03:10:44;;;;;;;25.20;23.30;;;7.70;97.30;;;;;;5032544;28;20197;-72
2021/12/27 03:13:17;;;;;;;23.55;21.90;;;7.70;97.10;;;;;;5032811;28;20291;-72
2021/12/27 03:15:44;;;;;;;22.67;21.27;;;7.70;96.80;;;;;;5032822;28;20594;-72
2021/12/27 03:18:13;;;;;;;22.90;21.27;;;7.70;96.70;;;;;;5032611;28;20284;-72
2021/12/27 03:20:40;;;;;;;23.10;21.30;;;7.80;96.50;;;;;;5032434;28;20267;-72
2021/12/27 03:23:07;;;;;;;23.42;21.85;;;7.80;96.30;;;;;;5032661;28;20201;-72
2021/12/27 03:25:35;;;;;;;24.02;22.33;;;7.80;96.60;;;;;;5033191;28;20569;-72
2021/12/27 03:28:02;;;;;;;22.88;21.13;;;7.90;96.10;;;;;;5036871;28;20300;-72
2021/12/27 03:30:30;;;;;;;22.20;20.80;;;7.90;95.80;;;;;;5036544;28;20219;-72
2021/12/27 03:32:57;;;;;;;22.30;20.85;;;7.90;95.60;;;;;;5036773;28;20201;-72
2021/12/27 03:35:28;;;;;;;22.77;21.27;;;7.90;95.50;;;;;;5036541;28;20197;-72
2021/12/27 03:37:57;;;;;;;21.40;20.00;;;7.90;95.70;;;;;;5036720;28;20219;-72
2021/12/27 03:40:26;;;;;;;22.10;20.67;;;7.80;95.70;;;;;;5035905;28;20210;-72
2021/12/27 03:42:53;;;;;;;22.02;20.45;;;7.90;95.80;;;;;;5036514;28;20204;-72
2021/12/27 03:45:22;;;;;;;338.55;50.80;;;7.90;96.00;;;;;;5036214;28;20201;-72
2021/12/27 03:47:51;;;;;;;21.38;20.08;;;7.90;96.50;;;;;;5036388;28;20232;-72
2021/12/27 03:50:18;;;;;;;205.75;36.55;;;7.90;96.60;;;;;;5035877;28;20299;-72
2021/12/27 03:52:46;;;;;;;21.30;19.85;;;7.90;96.40;;;;;;5036471;28;20207;-72
2021/12/27 03:55:13;;;;;;;20.15;18.85;;;8.00;96.50;;;;;;5036250;28;20202;-72
2021/12/27 03:57:42;;;;;;;21.15;19.85;;;8.00;95.80;;;;;;5036138;28;20198;-72
2021/12/27 04:00:28;;;;;;;19.88;18.67;;;8.00;95.60;;;;;;5035814;28;20221;-72
2021/12/27 04:02:59;;;;;;;20.02;18.83;;;8.00;95.10;;;;;;5036411;28;20201;-72
2021/12/27 04:05:27;;;;;;;20.65;19.35;;;8.00;95.10;;;;;;5036047;28;20243;-72
2021/12/27 04:08:00;;;;;;;22.40;21.17;;;8.00;95.20;;;;;;5035899;28;20215;-72
2021/12/27 04:10:28;;;;;;;21.80;20.40;;;8.00;95.40;;;;;;5044017;22;20701;-72
2021/12/27 04:12:55;;;;;;;20.73;19.52;;;8.00;95.80;;;;;;5035798;28;20232;-72
2021/12/27 04:15:22;;;;;;;20.05;18.95;;;8.00;95.80;;;;;;5035656;28;20200;-73
2021/12/27 04:17:51;;;;;;;21.80;20.52;;;8.00;95.70;;;;;;5035628;28;20284;-72
2021/12/27 04:20:20;;;;;;;20.00;18.80;;;8.10;95.40;;;;;;5035463;28;20221;-72
2021/12/27 04:22:47;;;;;;;21.85;20.60;;;8.20;95.00;;;;;;5035785;28;20200;-72
2021/12/27 04:25:15;;;;;;;20.73;19.52;;;8.10;94.40;;;;;;5035549;28;20297;-72
2021/12/27 04:27:41;;;;;;;23.08;20.73;;;8.10;95.10;;;;;;5035771;28;20204;-73
2021/12/27 04:30:10;;;;;;;21.02;19.83;;;8.10;95.60;;;;;;5035202;28;20223;-72
2021/12/27 04:32:37;;;;;;;20.42;19.25;;;8.20;95.80;;;;;;5035439;28;20676;-72
2021/12/27 04:35:04;;;;;;;20.05;18.85;;;8.10;96.60;;;;;;5035493;28;20200;-72
2021/12/27 04:37:32;;;;;;;19.38;18.17;;;8.00;96.50;;;;;;5035390;28;20204;-72
2021/12/27 04:40:00;;;;;;;20.77;19.35;;;8.10;96.00;;;;;;5034895;28;20209;-72
2021/12/27 04:42:31;;;;;;;21.30;20.10;;;8.00;95.70;;;;;;5035408;28;20204;-72
2021/12/27 04:44:58;;;;;;;19.50;18.38;;;8.00;95.70;;;;;;5035062;28;20197;-72
2021/12/27 04:47:25;;;;;;;21.40;20.20;;;8.10;95.50;;;;;;5035212;28;20198;-72
2021/12/27 04:49:53;;;;;;;20.00;18.83;;;8.10;95.10;;;;;;5034802;28;20229;-73
2021/12/27 04:52:20;;;;;;;20.00;18.90;;;8.10;95.50;;;;;;5035203;28;20200;-72
2021/12/27 04:54:48;;;;;;;20.38;19.17;;;8.10;95.10;;;;;;5035165;28;20211;-72
2021/12/27 04:57:15;;;;;;;19.05;18.05;;;8.20;94.60;;;;;;5035061;28;20199;-72
2021/12/27 04:59:42;;;;;;;18.45;17.48;;;8.20;94.40;;;;;;5034673;28;20240;-72
2021/12/27 05:02:09;;;;;;;20.80;19.42;;;8.20;94.20;;;;;;5034940;28;20670;-72
2021/12/27 05:04:36;;;;;;;19.17;18.10;;;8.10;94.20;;;;;;5034876;28;20724;-72
2021/12/27 05:07:03;;;;;;;21.98;20.73;;;8.20;94.30;;;;;;5034853;28;20204;-72
2021/12/27 05:09:30;;;;;;;24.05;21.90;;;8.20;94.10;;;;;;5034566;28;20225;-72
2021/12/27 05:11:58;;;;;;;20.45;19.25;;;8.20;94.10;;;;;;5034588;28;20213;-72
2021/12/27 05:14:25;;;;;;;20.67;19.48;;;8.10;94.20;;;;;;5034727;28;20228;-73
2021/12/27 05:16:52;;;;;;;22.50;21.23;;;8.10;95.60;;;;;;5034692;28;20200;-72
2021/12/27 05:19:19;;;;;;;24.70;21.58;;;8.00;95.40;;;;;;5034304;28;20694;-72
2021/12/27 05:21:46;;;;;;;21.40;20.13;;;8.00;97.10;;;;;;5034577;28;20207;-72
2021/12/27 05:24:13;;;;;;;20.38;19.17;;;8.10;96.00;;;;;;5034574;28;20193;-72
2021/12/27 05:26:40;;;;;;;21.17;19.95;;;8.10;95.50;;;;;;5034463;28;20201;-72
2021/12/27 05:29:09;;;;;;;22.10;20.90;;;8.10;95.20;;;;;;5034087;28;20229;-72
2021/12/27 05:31:37;;;;;;;20.48;19.38;;;8.10;94.40;;;;;;5034426;28;20203;-72
2021/12/27 05:34:04;;;;;;;30.00;20.80;;;8.10;94.30;;;;;;5034344;28;20532;-72
2021/12/27 05:36:31;;;;;;;21.70;20.58;;;8.20;94.70;;;;;;5034461;28;20207;-72
2021/12/27 05:38:58;;;;;;;20.98;19.75;;;8.20;94.60;;;;;;5033922;28;20216;-72
2021/12/27 05:41:25;;;;;;;21.95;20.55;;;8.20;94.40;;;;;;5034149;28;20240;-72
2021/12/27 05:43:52;;;;;;;19.50;18.35;;;8.20;94.30;;;;;;5033964;28;20204;-72
2021/12/27 05:46:20;;;;;;;18.50;17.50;;;8.20;94.30;;;;;;5034249;28;20280;-72
2021/12/27 05:48:47;;;;;;;19.95;18.70;;;8.10;94.20;;;;;;5033496;28;20579;-72
2021/12/27 05:51:14;;;;;;;25.17;19.38;;;8.10;94.30;;;;;;5033909;28;20197;-72
2021/12/27 05:53:41;;;;;;;20.65;19.55;;;8.10;94.30;;;;;;5033970;28;20203;-72
2021/12/27 05:56:08;;;;;;;19.50;18.50;;;8.20;94.50;;;;;;5033938;28;20204;-72
2021/12/27 05:58:34;;;;;;;20.83;19.50;;;8.30;94.00;;;;;;5033816;28;20757;-72
2021/12/27 06:01:01;;;;;;;20.33;19.33;;;8.30;94.90;;;;;;5033851;28;20244;-72
2021/12/27 06:03:30;;;;;;;21.25;19.95;;;8.30;93.90;;;;;;5033786;28;20236;-72
2021/12/27 06:05:56;;;;;;;22.02;20.77;;;8.30;93.70;;;;;;5033706;28;20197;-72
2021/12/27 06:08:23;;;;;;;21.00;19.70;;;8.30;93.20;;;;;;5033565;28;20224;-72
2021/12/27 06:10:50;;;;;;;20.50;19.40;;;8.20;93.10;;;;;;5033343;28;20213;-72
2021/12/27 06:13:17;;;;;;;45.30;21.60;;;8.20;93.30;;;;;;5033583;28;20201;-72
2021/12/27 06:15:44;;;;;;;22.05;20.70;;;8.10;94.00;;;;;;5033542;28;20204;-73
2021/12/27 06:18:11;;;;;;;21.80;20.60;;;8.00;94.90;;;;;;5033387;28;20280;-73
2021/12/27 06:20:39;;;;;;;21.15;19.98;;;8.00;94.50;;;;;;5033326;28;20200;-72
2021/12/27 06:23:06;;;;;;;22.73;21.10;;;8.00;93.80;;;;;;5033389;28;20207;-72
2021/12/27 06:25:33;;;;;;;21.33;20.10;;;7.80;94.00;;;;;;5033318;28;20201;-72
2021/12/27 06:28:00;;;;;;;20.92;19.80;;;7.80;94.00;;;;;;5033430;28;20288;-72
2021/12/27 06:30:27;;;;;;;20.15;19.08;;;7.70;94.20;;;;;;5033112;28;20307;-72
2021/12/27 06:32:54;;;;;;;21.80;20.60;;;7.60;94.60;;;;;;5033581;28;20208;-72
2021/12/27 06:35:21;;;;;;;1645.32;220.40;;;7.50;94.90;;;;;;5033257;28;20548;-72
2021/12/27 06:37:49;;;;;;;304.23;42.97;;;7.50;95.30;;;;;;5033088;28;20204;-72
2021/12/27 06:40:18;;;;;;;20.33;19.20;;;7.50;97.20;;;;;;5032740;28;20251;-72
2021/12/27 06:42:46;;;;;;;329.92;43.88;;;7.50;97.50;;;;;;5033205;28;20197;-72
2021/12/27 06:45:13;;;;;;;22.25;20.95;;;7.50;96.90;;;;;;5032922;28;20239;-72
2021/12/27 06:47:40;;;;;;;21.52;20.33;;;7.40;97.70;;;;;;5032915;28;20208;-72
2021/12/27 06:50:09;;;;;;;22.05;20.75;;;7.30;96.30;;;;;;5032537;28;20595;-72
2021/12/27 06:52:37;;;;;;;22.42;21.17;;;7.10;96.50;;;;;;5033006;28;20200;-72
2021/12/27 06:55:06;;;;;;;23.35;22.00;;;7.00;96.70;;;;;;5032957;28;20203;-72
2021/12/27 06:57:33;;;;;;;21.50;20.30;;;6.90;96.70;;;;;;5032838;28;20204;-72
2021/12/27 07:00:02;;;;;;;22.27;21.02;;;7.00;96.40;;;;;;5032036;28;20582;-72
2021/12/27 07:02:29;;;;;;;23.52;22.00;;;6.90;96.10;;;;;;5032584;28;20201;-72
2021/12/27 07:04:55;;;;;;;23.08;21.77;;;6.90;96.00;;;;;;5032706;28;20193;-72
2021/12/27 07:07:22;;;;;;;24.17;22.60;;;6.80;96.40;;;;;;5032835;28;20197;-72
2021/12/27 07:09:50;;;;;;;23.42;22.02;;;6.70;96.60;;;;;;5032160;28;20225;-72
2021/12/27 07:12:18;;;;;;;22.98;21.63;;;6.70;96.80;;;;;;5032768;28;20197;-72
2021/12/27 07:14:47;;;;;;;23.05;21.70;;;6.60;96.70;;;;;;5032804;28;20670;-72
2021/12/27 07:17:14;;;;;;;24.35;22.90;;;6.70;96.40;;;;;;5032638;28;20561;-72
2021/12/27 07:19:41;;;;;;;23.95;22.55;;;6.60;96.20;;;;;;5032563;28;20570;-72
2021/12/27 07:22:08;;;;;;;22.70;21.23;;;6.60;96.40;;;;;;5032594;28;20193;-72
2021/12/27 07:24:35;;;;;;;24.30;22.73;;;6.50;96.60;;;;;;5032587;28;20193;-72
2021/12/27 07:27:02;;;;;;;25.08;23.48;;;6.50;97.10;;;;;;5032690;28;20197;-72
2021/12/27 07:29:30;;;;;;;24.02;22.73;;;6.50;97.20;;;;;;5032267;28;20225;-72
2021/12/27 07:31:57;;;;;;;25.27;23.85;;;6.50;96.90;;;;;;5032866;28;20288;-72
2021/12/27 07:34:24;;;;;;;22.77;21.38;;;6.40;96.90;;;;;;5032515;28;20203;-72
2021/12/27 07:36:53;;;;;;;23.70;22.20;;;6.40;97.00;;;;;;5032594;28;20205;-72
2021/12/27 07:39:20;;;;;;;21.92;20.65;;;6.40;97.00;;;;;;5032231;28;20209;-72
2021/12/27 07:41:47;;;;;;;23.77;22.17;;;6.50;96.70;;;;;;5032544;28;20193;-72
2021/12/27 07:44:14;;;;;;;22.67;21.27;;;6.50;96.40;;;;;;5032276;28;20204;-72
2021/12/27 07:46:45;;;;;;;25.90;24.27;;;6.50;96.40;;;;;;5032428;28;20194;-72
2021/12/27 07:49:13;;;;;;;24.08;22.63;;;6.50;96.30;;;;;;5032174;28;20228;-72
2021/12/27 07:51:40;;;;;;;25.17;23.38;;;6.50;96.40;;;;;;5032463;28;20204;-72
2021/12/27 07:54:08;;;;;;;25.70;23.92;;;6.60;96.40;;;;;;5032224;28;20557;-72
2021/12/27 07:56:35;;;;;;;26.05;24.35;;;6.60;96.30;;;;;;5032257;28;20227;-72
2021/12/27 07:59:04;;;;;;;23.38;21.98;;;6.60;96.20;;;;;;5032186;28;20214;-72
2021/12/27 08:01:31;;;;;;;21.15;19.85;;;6.70;96.00;;;;;;5032178;28;20216;-72
2021/12/27 08:03:59;;;;;;;25.10;23.50;;;6.70;95.70;;;;;;5032290;28;20205;-72
2021/12/27 08:06:27;;;;;;;25.73;23.92;;;6.70;95.70;;;;;;5032085;28;20197;-72
2021/12/27 08:08:54;;;;;;;23.67;22.05;;;6.70;95.60;;;;;;5031824;28;20221;-72
2021/12/27 08:11:21;;;;;;;23.05;21.60;;;6.70;95.40;;;;;;5031943;28;20208;-72
2021/12/27 08:13:48;;;;;;;24.48;22.58;;;6.80;95.80;;;;;;5035812;28;20200;-72
2021/12/27 08:16:15;;;;;;;19.40;18.30;;;6.90;95.20;;;;;;5036005;28;20566;-72
2021/12/27 08:18:42;;;;;;;25.63;23.90;;;7.00;95.10;;;;;;5035767;28;20221;-72
2021/12/27 08:21:10;;;;;;;23.58;21.67;;;7.00;94.90;;;;;;5035687;28;20288;-72
2021/12/27 08:23:37;;;;;;;20.23;19.02;;;7.10;94.60;;;;;;5035749;28;20288;-72
2021/12/27 08:26:04;;;;;;;22.23;20.92;;;7.10;94.60;;;;;;5036171;28;20676;-72
2021/12/27 08:28:31;;;;;;;24.67;22.80;;;7.10;94.90;;;;;;5035479;28;20679;-72
2021/12/27 08:30:58;;;;;;;21.77;20.52;;;7.20;94.70;;;;;;5035573;28;20224;-72
2021/12/27 08:33:25;;;;;;;24.55;23.05;;;7.20;95.10;;;;;;5035845;28;20204;-72
2021/12/27 08:35:52;;;;;;;24.30;22.83;;;7.10;94.80;;;;;;5035640;28;20212;-72
2021/12/27 08:38:20;;;;;;;24.55;23.08;;;7.20;94.70;;;;;;5035496;28;20204;-72
2021/12/27 08:40:47;;;;;;;23.10;21.70;;;7.30;94.30;;;;;;5034955;28;20201;-72
2021/12/27 08:43:14;;;;;;;21.88;20.45;;;7.30;93.90;;;;;;5035251;28;20201;-72
2021/12/27 08:45:41;;;;;;;21.52;20.15;;;7.40;94.10;;;;;;5035134;28;20288;-72
2021/12/27 08:48:08;;;;;;;20.77;19.38;;;7.50;94.90;;;;;;5035262;28;20197;-72
2021/12/27 08:50:37;;;;;;;22.30;20.98;;;7.60;94.70;;;;;;5034900;28;20251;-72
2021/12/27 08:53:05;;;;;;;151.38;35.78;;;7.90;94.20;;;;;;5035135;28;20544;-72
2021/12/27 08:55:34;;;;;;;21.90;20.63;;;8.10;95.10;;;;;;5035056;28;20197;-72
2021/12/27 08:58:02;;;;;;;19.75;18.55;;;8.30;94.00;;;;;;5035073;28;20658;-72
2021/12/27 09:00:29;;;;;;;20.77;19.48;;;8.40;93.20;;;;;;5034661;28;20222;-72
2021/12/27 09:02:56;;;;;;;23.17;21.48;;;8.60;92.40;;;;;;5034933;28;20659;-72
2021/12/27 09:05:23;;;;;;;21.42;20.13;;;8.70;91.50;;;;;;5034844;28;20536;-73
2021/12/27 09:07:50;;;;;;;22.15;20.88;;;8.80;90.70;;;;;;5034976;28;20209;-72
2021/12/27 09:10:17;;;;;;;22.75;21.55;;;8.90;90.00;;;;;;5034363;28;20223;-73
2021/12/27 09:12:46;;;;;;;21.70;20.30;;;9.00;89.30;;;;;;5034863;28;20193;-72
2021/12/27 09:15:15;;;;;;;20.90;19.60;;;9.00;89.50;;;;;;5034647;28;20967;-72
2021/12/27 09:17:42;;;;;;;22.13;20.92;;;9.00;90.80;;;;;;5034741;28;20452;-72
2021/12/27 09:20:10;;;;;;;21.50;20.23;;;9.10;89.90;;;;;;5034230;28;20217;-73
2021/12/27 09:22:37;;;;;;;25.20;23.33;;;9.10;89.60;;;;;;5034594;28;20194;-73
2021/12/27 09:25:04;;;;;;;23.13;21.60;;;9.10;89.30;;;;;;5033604;28;20462;-73
2021/12/27 09:27:32;;;;;;;23.00;21.60;;;9.10;89.50;;;;;;5034502;28;20452;-72
2021/12/27 09:30:00;;;;;;;22.83;21.33;;;9.20;89.10;;;;;;5034018;28;20898;-72
2021/12/27 09:32:27;;;;;;;24.67;23.17;;;9.10;88.90;;;;;;5034373;28;20956;-73
2021/12/27 09:34:54;;;;;;;23.90;22.20;;;9.20;88.80;;;;;;5034161;28;20461;-72
2021/12/27 09:37:21;;;;;;;24.77;23.33;;;9.30;87.60;;;;;;5034455;28;20448;-72
2021/12/27 09:39:53;;;;;;;22.73;21.43;;;9.30;87.90;;;;;;5033876;28;20559;-72
2021/12/27 09:42:21;;;;;;;23.90;22.50;;;9.30;89.10;;;;;;5034285;28;20459;-72
2021/12/27 09:44:48;;;;;;;23.70;22.30;;;9.30;88.10;;;;;;5034131;28;20529;-72
2021/12/27 09:47:16;;;;;;;24.60;23.10;;;9.30;88.60;;;;;;5034219;28;20480;-71
2021/12/27 09:49:44;;;;;;;23.73;22.33;;;9.40;88.40;;;;;;5033834;28;21027;-72
2021/12/27 09:52:11;;;;;;;22.30;20.73;;;9.40;88.40;;;;;;5034092;28;20452;-72
2021/12/27 09:54:38;;;;;;;23.37;21.97;;;9.50;88.20;;;;;;5034144;28;20794;-72
2021/12/27 09:57:06;;;;;;;22.10;20.40;;;9.50;89.70;;;;;;5033904;28;20993;-72
2021/12/27 09:59:34;;;;;;;22.87;21.53;;;9.60;88.60;;;;;;5033788;28;20560;-72
2021/12/27 10:02:00;;;;;;;20.90;19.70;;;9.60;88.10;;;;;;5033829;28;20459;-72
2021/12/27 10:04:29;;;;;;;22.57;21.27;;;9.60;88.50;;;;;;5033738;28;20448;-72
2021/12/27 10:06:56;;;;;;;22.10;20.90;;;9.60;87.90;;;;;;5033926;28;20455;-73
2021/12/27 10:09:23;;;;;;;23.17;21.67;;;9.60;88.00;;;;;;5033599;28;20552;-72
2021/12/27 10:11:51;;;;;;;22.40;21.10;;;9.60;87.70;;;;;;5033556;28;20868;-73
2021/12/27 10:14:19;;;;;;;21.10;19.80;;;9.60;87.10;;;;;;5033567;28;20456;-72
2021/12/27 10:16:47;;;;;;;21.80;20.50;;;9.70;86.60;;;;;;5033530;28;20455;-73
2021/12/27 10:19:16;;;;;;;22.60;21.20;;;9.70;86.30;;;;;;5033226;28;20833;-72
2021/12/27 10:21:45;;;;;;;240.17;37.10;;;9.70;86.30;;;;;;5033484;28;20813;-73
2021/12/27 10:24:14;;;;;;;20.50;19.30;;;9.70;88.20;;;;;;5033467;28;20448;-72
2021/12/27 10:26:42;;;;;;;20.73;19.53;;;9.70;89.30;;;;;;5033308;28;20452;-73
2021/12/27 10:29:11;;;;;;;20.20;19.20;;;9.70;88.70;;;;;;5033321;28;20468;-72
2021/12/27 10:32:00;;;;;;;20.93;19.63;;;9.80;88.00;;;;;;5033722;28;20476;-72
2021/12/27 10:34:29;;;;;;;21.80;20.50;;;9.80;87.00;;;;;;5033200;28;20526;-72
2021/12/27 10:37:06;;;;;;;22.00;20.70;;;9.70;86.20;;;;;;5033255;28;20448;-72
2021/12/27 10:39:51;;;;;;;20.60;19.50;;;9.70;86.40;;;;;;5032595;28;20471;-73
2021/12/27 10:42:20;;;;;;;20.93;19.63;;;9.80;86.00;;;;;;5033288;28;20452;-73
2021/12/27 10:44:51;;;;;;;22.27;21.10;;;9.80;86.00;;;;;;5032949;28;20469;-72
2021/12/27 10:47:32;;;;;;;22.17;20.97;;;10.00;85.50;;;;;;5033002;28;20448;-73
2021/12/27 10:50:03;;;;;;;21.67;20.40;;;10.00;85.20;;;;;;5032656;28;20566;-72
2021/12/27 10:52:58;;;;;;;21.37;20.07;;;10.10;85.40;;;;;;5033229;28;20458;-72
2021/12/27 10:55:30;;;;;;;21.23;20.10;;;10.10;86.30;;;;;;5032990;28;21009;-72
2021/12/27 10:58:11;;;;;;;20.33;19.23;;;10.10;86.30;;;;;;5033005;28;20534;-72
2021/12/27 11:00:39;;;;;;;20.47;19.37;;;10.20;85.40;;;;;;5032771;28;20448;-72
2021/12/27 11:03:05;;;;;;;22.10;20.90;;;10.20;85.30;;;;;;5033029;28;20455;-72
2021/12/27 11:05:34;;;;;;;21.90;20.77;;;10.40;84.30;;;;;;5032779;28;20937;-72
2021/12/27 11:08:05;;;;;;;21.20;19.63;;;10.40;84.00;;;;;;5032794;28;20491;-73
2021/12/27 11:10:37;;;;;;;19.83;18.83;;;10.50;83.70;;;;;;5032331;28;20476;-72
2021/12/27 11:13:06;;;;;;;21.33;20.23;;;10.40;83.90;;;;;;5032772;28;20538;-73
2021/12/27 11:15:36;;;;;;;20.87;19.63;;;10.50;83.80;;;;;;5032565;28;20541;-72
2021/12/27 11:18:04;;;;;;;22.27;21.03;;;10.70;83.00;;;;;;5032757;28;20539;-72
2021/12/27 11:20:31;;;;;;;19.40;18.30;;;10.70;83.40;;;;;;5032580;28;20556;-72
2021/12/27 11:23:00;;;;;;;20.83;19.63;;;10.70;84.90;;;;;;5032548;28;20456;-73
2021/12/27 11:25:32;;;;;;;22.43;21.23;;;10.80;83.90;;;;;;5032730;28;20456;-72
2021/12/27 11:28:01;;;;;;;21.23;20.10;;;10.90;83.60;;;;;;5032734;28;20452;-72
2021/12/27 11:30:31;;;;;;;21.10;19.67;;;10.90;83.30;;;;;;5032222;28;20479;-72
2021/12/27 11:33:12;;;;;;;22.53;21.23;;;11.00;83.20;;;;;;5032736;28;20456;-72
2021/12/27 11:36:02;;;;;;;23.10;21.70;;;11.10;82.90;;;;;;5032450;28;20514;-72
2021/12/27 11:38:30;;;;;;;20.00;19.00;;;11.10;82.50;;;;;;5032260;28;20452;-73
2021/12/27 11:41:00;;;;;;;22.43;21.23;;;11.10;83.00;;;;;;5032111;28;20456;-73
2021/12/27 11:43:47;;;;;;;22.47;21.17;;;11.20;82.70;;;;;;5032317;28;20455;-73
2021/12/27 11:46:14;;;;;;;22.10;20.90;;;11.30;82.60;;;;;;5032354;28;20531;-73
2021/12/27 11:48:46;;;;;;;20.73;19.63;;;11.50;80.90;;;;;;5036135;28;20463;-73
2021/12/27 11:51:15;;;;;;;22.80;21.40;;;11.50;80.60;;;;;;5036205;28;20484;-73
2021/12/27 11:53:52;;;;;;;22.27;20.97;;;11.50;80.60;;;;;;5036290;28;20539;-73
2021/12/27 11:56:44;;;;;;;22.03;20.73;;;11.50;82.50;;;;;;5036165;28;20447;-73
2021/12/27 11:59:31;;;;;;;22.87;21.60;;;11.70;81.10;;;;;;5035845;28;20478;-73
2021/12/27 12:02:04;;;;;;;21.67;20.47;;;11.70;80.40;;;;;;5036089;28;20458;-72
2021/12/27 12:04:41;;;;;;;22.60;21.07;;;11.70;81.50;;;;;;5035972;28;20491;-73
2021/12/27 12:07:09;;;;;;;24.17;22.50;;;11.70;80.20;;;;;;5035935;28;20523;-73
2021/12/27 12:09:46;;;;;;;24.47;23.20;;;11.80;80.50;;;;;;5035725;28;20552;-73
2021/12/27 12:12:15;;;;;;;23.33;21.77;;;11.70;80.50;;;;;;5035835;28;20471;-73
2021/12/27 12:14:43;;;;;;;23.67;22.10;;;11.70;80.70;;;;;;5035898;28;20459;-73
2021/12/27 12:17:13;;;;;;;22.73;21.13;;;11.80;80.20;;;;;;5035699;28;20452;-73
2021/12/27 12:19:45;;;;;;;22.77;21.47;;;11.80;80.00;;;;;;5035575;28;20841;-73
2021/12/27 12:22:33;;;;;;;23.30;21.90;;;11.90;79.80;;;;;;5035715;28;20547;-72
2021/12/27 12:25:14;;;;;;;23.40;22.10;;;11.90;79.60;;;;;;5035720;28;20490;-73
2021/12/27 12:27:59;;;;;;;24.80;23.33;;;11.90;78.90;;;;;;5035732;28;20456;-72
2021/12/27 12:30:32;;;;;;;23.07;21.77;;;11.90;80.00;;;;;;5035451;28;20537;-72
2021/12/27 12:33:01;;;;;;;24.77;23.37;;;11.90;79.30;;;;;;5035640;28;20456;-73
2021/12/27 12:35:37;;;;;;;22.70;21.37;;;12.00;79.10;;;;;;5035636;28;20452;-73
2021/12/27 12:38:20;;;;;;;22.80;21.50;;;11.90;79.30;;;;;;5035457;28;20477;-73
2021/12/27 12:40:58;;;;;;;23.30;21.83;;;12.10;78.90;;;;;;5035171;28;20459;-73
2021/12/27 12:43:35;;;;;;;24.53;23.13;;;12.00;80.80;;;;;;5035414;28;20455;-73